Terminal Aerodrome Forecast
Issued by NWS Sioux Falls, SD

Home | Current Version | Previous Version | Text Only | Print | Product List | Glossary On
Versions: 1 2 3 4 5 6 7 8 9 10 11 12 13
959
FTUS43 KFSD 231141 AAC
TAFHON
TAF AMD
KHON 231141Z 2312/2412 02010KT P6SM OVC150
     FM231800 05013G21KT P6SM OVC080
     FM231900 05015G23KT 4SM -SN OVC025
     FM232100 04017G25KT 1 1/2SM -SN OVC015
     FM240100 03018G27KT 2SM -SN OVC015
     FM240400 02020G29KT 3SM -SN BLSN OVC015
     FM240700 02020G30KT 5SM -SN BLSN OVC025
     FM240900 36018G26KT P6SM OVC140=

USA.gov is the U.S. government's official web portal to all federal, state and local government web resources and services.